createdAt,value
2018-02-15T00:00:02.000Z,27.5
2018-02-15T00:01:02.000Z,27.5
2018-02-15T00:02:02.000Z,27.5
2018-02-15T00:03:02.000Z,27.5
2018-02-15T00:04:02.000Z,27.6
2018-02-15T00:05:02.000Z,27.6
2018-02-15T00:06:02.000Z,27.6
2018-02-15T00:08:02.000Z,27.6
2018-02-15T00:10:02.000Z,27.5
2018-02-15T00:12:02.000Z,27.5
2018-02-15T00:14:02.000Z,27.5
2018-02-15T00:16:02.000Z,27.4
2018-02-15T00:18:03.000Z,27.3
2018-02-15T00:19:03.000Z,27.3
2018-02-15T00:20:47.000Z,27.3
2018-02-15T00:22:03.000Z,27.3
2018-02-15T00:24:03.000Z,27.3
2018-02-15T00:26:03.000Z,27.3
2018-02-15T00:28:03.000Z,27.2
2018-02-15T00:29:03.000Z,27.2
2018-02-15T00:30:03.000Z,27.3
2018-02-15T00:32:03.000Z,27.3
2018-02-15T00:34:03.000Z,27.3
2018-02-15T00:35:03.000Z,27.3
2018-02-15T00:37:03.000Z,27.3
2018-02-15T00:38:03.000Z,27.3
2018-02-15T00:39:03.000Z,27.3
2018-02-15T00:41:03.000Z,27.3
2018-02-15T00:42:03.000Z,27.3
2018-02-15T00:44:03.000Z,27.4
2018-02-15T00:45:03.000Z,27.4
2018-02-15T00:47:03.000Z,27.3
2018-02-15T00:48:03.000Z,27.3
2018-02-15T00:49:03.000Z,27.3
2018-02-15T00:51:03.000Z,27.3
2018-02-15T00:53:03.000Z,27.2
2018-02-15T00:54:03.000Z,27.2
2018-02-15T00:55:03.000Z,27.3
2018-02-15T00:56:03.000Z,27.3
2018-02-15T00:58:03.000Z,27.4
2018-02-15T01:00:03.000Z,27.4
2018-02-15T01:01:03.000Z,27.4
2018-02-15T01:02:03.000Z,27.4
2018-02-15T01:04:03.000Z,27.4
2018-02-15T01:06:03.000Z,27.3
2018-02-15T01:08:03.000Z,27.2
2018-02-15T01:09:03.000Z,27.2
2018-02-15T01:11:03.000Z,27.2
2018-02-15T01:12:03.000Z,27.3
2018-02-15T01:14:03.000Z,27.3
2018-02-15T01:15:03.000Z,27.3
2018-02-15T01:17:03.000Z,27.3
2018-02-15T01:19:03.000Z,27.2
2018-02-15T01:20:03.000Z,27.2
2018-02-15T01:22:03.000Z,27.2
2018-02-15T01:24:03.000Z,27.2
2018-02-15T01:25:03.000Z,27.2
2018-02-15T01:27:03.000Z,27.2
2018-02-15T01:28:03.000Z,27.2
2018-02-15T01:30:03.000Z,27.2
2018-02-15T01:31:03.000Z,27.3
2018-02-15T01:33:03.000Z,27.3
2018-02-15T01:34:03.000Z,27.3
2018-02-15T01:35:03.000Z,27.4
2018-02-15T01:37:03.000Z,27.5
2018-02-15T01:39:03.000Z,27.4
2018-02-15T01:41:03.000Z,27.4
2018-02-15T01:43:03.000Z,27.3
2018-02-15T01:45:03.000Z,27.3
2018-02-15T01:46:03.000Z,27.3
2018-02-15T01:47:03.000Z,27.3
2018-02-15T01:49:03.000Z,27.2
2018-02-15T01:51:03.000Z,27.2
2018-02-15T01:52:47.000Z,27.2
2018-02-15T01:54:03.000Z,27.1
2018-02-15T01:55:03.000Z,27.2
2018-02-15T01:57:03.000Z,27.2
2018-02-15T01:59:03.000Z,27.2
2018-02-15T02:00:03.000Z,27.2
2018-02-15T02:01:03.000Z,27.3
2018-02-15T02:03:03.000Z,27.3
2018-02-15T02:04:03.000Z,27.3
2018-02-15T02:06:03.000Z,27.4
2018-02-15T02:08:03.000Z,27.3
2018-02-15T02:09:03.000Z,27.3
2018-02-15T02:10:03.000Z,27.4
2018-02-15T02:12:03.000Z,27.4
2018-02-15T02:14:03.000Z,27.4
2018-02-15T02:16:03.000Z,27.3
2018-02-15T02:17:03.000Z,27.3
2018-02-15T02:18:03.000Z,27.3
2018-02-15T02:19:03.000Z,27.3
2018-02-15T02:20:03.000Z,27.4
2018-02-15T02:22:03.000Z,27.4
2018-02-15T02:23:03.000Z,27.4
2018-02-15T02:25:02.000Z,27.4
2018-02-15T02:26:02.000Z,27.4
2018-02-15T02:27:02.000Z,27.4
2018-02-15T02:29:02.000Z,27.4
2018-02-15T02:31:02.000Z,27.4
2018-02-15T02:32:02.000Z,27.4
2018-02-15T02:33:02.000Z,27.4
2018-02-15T02:35:02.000Z,27.4
2018-02-15T02:37:02.000Z,27.3
2018-02-15T02:38:02.000Z,27.2
2018-02-15T02:39:02.000Z,27.3
2018-02-15T02:40:02.000Z,27.3
2018-02-15T02:42:02.000Z,27.3
2018-02-15T02:44:02.000Z,27.3
2018-02-15T02:46:02.000Z,27.2
2018-02-15T02:47:02.000Z,27.2
2018-02-15T02:48:02.000Z,27.2
2018-02-15T02:49:47.000Z,27.2
2018-02-15T02:51:02.000Z,27.2
2018-02-15T02:52:02.000Z,27.2
2018-02-15T02:53:47.000Z,27.3
2018-02-15T02:55:02.000Z,27.2
2018-02-15T02:57:02.000Z,27.2
2018-02-15T02:58:02.000Z,27.2
2018-02-15T03:00:02.000Z,27.2
2018-02-15T03:02:02.000Z,27.2
2018-02-15T03:04:02.000Z,27.1
2018-02-15T03:05:02.000Z,27.1
2018-02-15T03:07:02.000Z,27.2
2018-02-15T03:08:02.000Z,27.2
2018-02-15T03:09:02.000Z,27.2
2018-02-15T03:11:02.000Z,27.3
2018-02-15T03:12:02.000Z,27.3
2018-02-15T03:14:02.000Z,27.3
2018-02-15T03:16:02.000Z,27.3
2018-02-15T03:18:02.000Z,27.2
2018-02-15T03:19:02.000Z,27.2
2018-02-15T03:21:02.000Z,27.1
2018-02-15T03:22:02.000Z,27.1
2018-02-15T03:23:02.000Z,27.2
2018-02-15T03:24:02.000Z,27.2
2018-02-15T03:26:02.000Z,27.2
2018-02-15T03:27:02.000Z,27.2
2018-02-15T03:29:02.000Z,27.2
2018-02-15T03:30:02.000Z,27.2
2018-02-15T03:32:02.000Z,27.3
2018-02-15T03:33:02.000Z,27.3
2018-02-15T03:34:02.000Z,27.3
2018-02-15T03:36:02.000Z,27.4
2018-02-15T03:37:02.000Z,27.4
2018-02-15T03:39:02.000Z,27.4
2018-02-15T03:40:02.000Z,27.4
2018-02-15T03:42:02.000Z,27.4
2018-02-15T03:44:02.000Z,27.3
2018-02-15T03:45:02.000Z,27.3
2018-02-15T03:47:02.000Z,27.3
2018-02-15T03:48:02.000Z,27.3
2018-02-15T03:50:02.000Z,27.2
2018-02-15T03:51:02.000Z,27.2
2018-02-15T03:52:47.000Z,27.2
2018-02-15T03:54:02.000Z,27.2
2018-02-15T03:55:02.000Z,27.2
2018-02-15T03:56:02.000Z,27.2
2018-02-15T03:58:02.000Z,27.2
2018-02-15T04:00:02.000Z,27.2
2018-02-15T04:01:02.000Z,27.1
2018-02-15T04:02:02.000Z,27.2
2018-02-15T04:03:02.000Z,27.2
2018-02-15T04:05:02.000Z,27.2
2018-02-15T04:07:02.000Z,27.1
2018-02-15T04:09:02.000Z,27
2018-02-15T04:11:02.000Z,27
2018-02-15T04:13:02.000Z,27
2018-02-15T04:15:02.000Z,27
2018-02-15T04:17:02.000Z,27
2018-02-15T04:18:02.000Z,27
2018-02-15T04:20:02.000Z,27
2018-02-15T04:21:02.000Z,27
2018-02-15T04:23:02.000Z,27
2018-02-15T04:24:02.000Z,27
2018-02-15T04:26:02.000Z,27.1
2018-02-15T04:28:02.000Z,27
2018-02-15T04:29:02.000Z,27
2018-02-15T04:31:02.000Z,27
2018-02-15T04:32:02.000Z,27
2018-02-15T04:34:02.000Z,27.1
2018-02-15T04:36:02.000Z,27.1
2018-02-15T04:37:47.000Z,27.1
2018-02-15T04:39:02.000Z,27
2018-02-15T04:40:02.000Z,27.1
2018-02-15T04:42:02.000Z,27.1
2018-02-15T04:44:02.000Z,27.1
2018-02-15T04:45:02.000Z,27.1
2018-02-15T04:46:02.000Z,27.1
2018-02-15T04:47:47.000Z,27.2
2018-02-15T04:49:02.000Z,27.2
2018-02-15T04:50:02.000Z,27.2
2018-02-15T04:52:02.000Z,27.2
2018-02-15T04:54:02.000Z,27.2
2018-02-15T04:56:02.000Z,27.1
2018-02-15T04:57:02.000Z,27.1
2018-02-15T04:59:02.000Z,27.1
2018-02-15T05:01:02.000Z,27
2018-02-15T05:02:47.000Z,27.1
2018-02-15T05:04:02.000Z,27
2018-02-15T05:05:02.000Z,27
2018-02-15T05:07:02.000Z,27.1
2018-02-15T05:08:02.000Z,27.1
2018-02-15T05:10:02.000Z,27.2
2018-02-15T05:11:47.000Z,27.2
2018-02-15T05:13:02.000Z,27.1
2018-02-15T05:14:02.000Z,27.1
2018-02-15T05:16:02.000Z,27.1
2018-02-15T05:18:02.000Z,27.1
2018-02-15T05:19:02.000Z,27.1
2018-02-15T05:20:02.000Z,27.1
2018-02-15T05:21:02.000Z,27.1
2018-02-15T05:22:47.000Z,27.2
2018-02-15T05:24:02.000Z,27.2
2018-02-15T05:26:02.000Z,27.1
2018-02-15T05:28:02.000Z,27
2018-02-15T05:29:02.000Z,27
2018-02-15T05:31:02.000Z,27
2018-02-15T05:32:02.000Z,27
2018-02-15T05:33:02.000Z,27.1
2018-02-15T05:35:02.000Z,27.1
2018-02-15T05:36:02.000Z,27.1
2018-02-15T05:37:02.000Z,27.2
2018-02-15T05:38:02.000Z,27.2
2018-02-15T05:40:02.000Z,27.2
2018-02-15T05:41:02.000Z,27.2
2018-02-15T05:42:02.000Z,27.2
2018-02-15T05:43:02.000Z,27.3
2018-02-15T05:45:02.000Z,27.3
2018-02-15T05:47:02.000Z,27.2
2018-02-15T05:48:02.000Z,27.2
2018-02-15T05:49:02.000Z,27.2
2018-02-15T05:51:02.000Z,27.3
2018-02-15T05:53:02.000Z,27.3
2018-02-15T05:55:02.000Z,27.2
2018-02-15T05:57:02.000Z,27.2
2018-02-15T05:58:02.000Z,27.2
2018-02-15T05:59:02.000Z,27.2
2018-02-15T06:00:02.000Z,27.3
2018-02-15T06:02:02.000Z,27.3
2018-02-15T06:03:02.000Z,27.2
2018-02-15T06:05:02.000Z,27.3
2018-02-15T06:06:02.000Z,27.3
2018-02-15T06:07:02.000Z,27.4
2018-02-15T06:09:02.000Z,27.4
2018-02-15T06:10:02.000Z,27.4
2018-02-15T06:12:02.000Z,27.4
2018-02-15T06:13:02.000Z,27.4
2018-02-15T06:14:02.000Z,27.4
2018-02-15T06:15:02.000Z,27.4
2018-02-15T06:16:47.000Z,27.5
2018-02-15T06:18:02.000Z,27.4
2018-02-15T06:19:47.000Z,27.4
2018-02-15T06:21:02.000Z,27.4
2018-02-15T06:22:02.000Z,27.4
2018-02-15T06:24:02.000Z,27.4
2018-02-15T06:25:02.000Z,27.4
2018-02-15T06:26:02.000Z,27.4
2018-02-15T06:28:02.000Z,27.5
2018-02-15T06:30:02.000Z,27.5
2018-02-15T06:31:02.000Z,27.5
2018-02-15T06:32:02.000Z,27.5
2018-02-15T06:34:02.000Z,27.6
2018-02-15T06:36:02.000Z,27.5
2018-02-15T06:38:02.000Z,27.5
2018-02-15T06:39:02.000Z,27.5
2018-02-15T06:40:02.000Z,27.5
2018-02-15T06:41:47.000Z,27.6
2018-02-15T06:43:02.000Z,27.6
2018-02-15T06:44:02.000Z,27.6
2018-02-15T06:45:47.000Z,27.6
2018-02-15T06:47:02.000Z,27.5
2018-02-15T06:49:02.000Z,27.5
2018-02-15T06:50:02.000Z,27.5
2018-02-15T06:52:02.000Z,27.5
2018-02-15T06:54:02.000Z,27.5
2018-02-15T06:56:02.000Z,27.5
2018-02-15T06:58:02.000Z,27.4
2018-02-15T07:00:02.000Z,27.3
2018-02-15T07:01:02.000Z,27.3
2018-02-15T07:03:02.000Z,27.4
2018-02-15T07:05:02.000Z,27.5
2018-02-15T07:07:02.000Z,27.5
2018-02-15T07:08:02.000Z,27.5
2018-02-15T07:10:02.000Z,27.6
2018-02-15T07:11:02.000Z,27.6
2018-02-15T07:13:02.000Z,27.7
2018-02-15T07:14:02.000Z,27.7
2018-02-15T07:15:02.000Z,27.8
2018-02-15T07:17:02.000Z,27.9
2018-02-15T07:18:02.000Z,27.9
2018-02-15T07:20:02.000Z,28
2018-02-15T07:21:02.000Z,28
2018-02-15T07:23:02.000Z,28
2018-02-15T07:24:02.000Z,28
2018-02-15T07:26:02.000Z,28
2018-02-15T07:27:02.000Z,28
2018-02-15T07:28:02.000Z,28.1
2018-02-15T07:30:02.000Z,28.2
2018-02-15T07:32:02.000Z,28.2
2018-02-15T07:33:02.000Z,28.2
2018-02-15T07:34:02.000Z,28.2
2018-02-15T07:36:02.000Z,28.3
2018-02-15T07:37:02.000Z,28.3
2018-02-15T07:38:02.000Z,28.3
2018-02-15T07:39:47.000Z,28.4
2018-02-15T07:41:02.000Z,28.3
2018-02-15T07:43:03.000Z,27.8
2018-02-15T07:44:03.000Z,27.2
2018-02-15T07:45:03.000Z,26.7
2018-02-15T07:46:03.000Z,26.3
2018-02-15T07:48:03.000Z,25.7
2018-02-15T07:50:03.000Z,25.1
2018-02-15T07:52:03.000Z,24.5
2018-02-15T07:53:03.000Z,24.4
2018-02-15T07:55:03.000Z,24
2018-02-15T07:56:03.000Z,23.8
2018-02-15T07:58:03.000Z,23.6
2018-02-15T07:59:03.000Z,23.4
2018-02-15T08:01:03.000Z,23.1
2018-02-15T08:02:03.000Z,23.2
2018-02-15T08:04:03.000Z,23.7
2018-02-15T08:05:03.000Z,23.9
2018-02-15T08:06:03.000Z,24.2
2018-02-15T08:08:03.000Z,24.7
2018-02-15T08:10:03.000Z,25
2018-02-15T08:11:03.000Z,25.1
2018-02-15T08:13:03.000Z,25.5
2018-02-15T08:14:03.000Z,25.6
2018-02-15T08:16:03.000Z,25.9
2018-02-15T08:17:03.000Z,26
2018-02-15T08:19:03.000Z,26.2
2018-02-15T08:20:03.000Z,26.2
2018-02-15T08:22:03.000Z,26.4
2018-02-15T08:23:03.000Z,26.5
2018-02-15T08:24:03.000Z,26.6
2018-02-15T08:26:03.000Z,26.7
2018-02-15T08:28:03.000Z,26.7
2018-02-15T08:29:03.000Z,26.8
2018-02-15T08:30:03.000Z,26.9
2018-02-15T08:31:47.000Z,27
2018-02-15T08:33:03.000Z,27.1
2018-02-15T08:34:03.000Z,27.2
2018-02-15T08:36:03.000Z,27.3
2018-02-15T08:38:03.000Z,27.4
2018-02-15T08:40:03.000Z,27.4
2018-02-15T08:41:03.000Z,27.4
2018-02-15T08:42:47.000Z,27.5
2018-02-15T08:44:03.000Z,27.5
2018-02-15T08:45:03.000Z,27.5
2018-02-15T08:46:02.000Z,27.6
2018-02-15T08:48:02.000Z,27.7
2018-02-15T08:50:02.000Z,27.7
2018-02-15T08:52:02.000Z,27.7
2018-02-15T08:53:02.000Z,27.8
2018-02-15T08:54:02.000Z,27.8
2018-02-15T08:56:02.000Z,28
2018-02-15T08:57:47.000Z,28
2018-02-15T08:59:02.000Z,28
2018-02-15T09:01:02.000Z,28
2018-02-15T09:03:02.000Z,28
2018-02-15T09:05:02.000Z,28.1
2018-02-15T09:07:02.000Z,28.1
2018-02-15T09:09:02.000Z,28.1
2018-02-15T09:10:02.000Z,28.2
2018-02-15T09:12:02.000Z,28.3
2018-02-15T09:14:02.000Z,28.3
2018-02-15T09:16:02.000Z,28.3
2018-02-15T09:18:02.000Z,28.3
2018-02-15T09:20:02.000Z,28.4
2018-02-15T09:22:02.000Z,28.5
2018-02-15T09:23:02.000Z,28.5
2018-02-15T09:24:02.000Z,28.6
2018-02-15T09:26:02.000Z,28.7
2018-02-15T09:28:02.000Z,28.7
2018-02-15T09:30:02.000Z,28.7
2018-02-15T09:31:02.000Z,28.7
2018-02-15T09:33:02.000Z,28.8
2018-02-15T09:34:47.000Z,28.8
2018-02-15T09:36:02.000Z,28.8
2018-02-15T09:37:02.000Z,28.9
2018-02-15T09:39:02.000Z,28.9
2018-02-15T09:40:02.000Z,28.9
2018-02-15T09:42:02.000Z,28.9
2018-02-15T09:44:02.000Z,28.9
2018-02-15T09:46:02.000Z,28.9
2018-02-15T09:48:02.000Z,28.9
2018-02-15T09:50:03.000Z,28.9
2018-02-15T09:51:03.000Z,28.9
2018-02-15T09:53:03.000Z,29
2018-02-15T09:55:03.000Z,29
2018-02-15T09:57:03.000Z,29
2018-02-15T09:58:03.000Z,29.1
2018-02-15T10:00:03.000Z,29.1
2018-02-15T10:02:03.000Z,29.1
2018-02-15T10:03:03.000Z,29.1
2018-02-15T10:04:03.000Z,29.2
2018-02-15T10:06:03.000Z,29.2
2018-02-15T10:07:03.000Z,29.2
2018-02-15T10:09:03.000Z,29.2
2018-02-15T10:10:48.000Z,29
2018-02-15T10:12:03.000Z,29.2
2018-02-15T10:16:03.000Z,28.9
2018-02-15T10:17:49.000Z,28.9
2018-02-15T10:18:49.000Z,29
2018-02-15T10:20:49.000Z,29.1
2018-02-15T10:22:49.000Z,29.2
2018-02-15T10:24:49.000Z,29.2
2018-02-15T10:25:49.000Z,29.2
2018-02-15T10:27:49.000Z,29.3
2018-02-15T10:29:49.000Z,29.4
2018-02-15T10:31:49.000Z,29.4
2018-02-15T10:32:49.000Z,29.4
2018-02-15T10:34:49.000Z,29.5
2018-02-15T10:36:49.000Z,29.5
2018-02-15T10:38:33.000Z,29.6
2018-02-15T10:39:49.000Z,29.6
2018-02-15T10:41:49.000Z,29.6
2018-02-15T10:42:49.000Z,29.6
2018-02-15T10:43:49.000Z,29.7
2018-02-15T10:45:49.000Z,29.8
2018-02-15T10:46:49.000Z,29.8
2018-02-15T10:47:49.000Z,29.9
2018-02-15T10:49:33.000Z,30
2018-02-15T10:50:49.000Z,30
2018-02-15T10:51:49.000Z,30
2018-02-15T10:53:33.000Z,30
2018-02-15T10:54:48.000Z,30
2018-02-15T10:56:48.000Z,30
2018-02-15T10:58:48.000Z,29.9
2018-02-15T11:00:48.000Z,29.8
2018-02-15T11:02:48.000Z,29.8
2018-02-15T11:04:48.000Z,29.8
2018-02-15T11:06:48.000Z,29.9
2018-02-15T11:08:48.000Z,29.9
2018-02-15T11:09:48.000Z,29.9
2018-02-15T11:11:48.000Z,29.9
2018-02-15T11:13:48.000Z,29.9
2018-02-15T11:14:48.000Z,29.9
2018-02-15T11:16:48.000Z,29.9
2018-02-15T11:18:48.000Z,29.5
2018-02-15T11:19:48.000Z,29
2018-02-15T11:20:48.000Z,28.4
2018-02-15T11:22:48.000Z,27.4
2018-02-15T11:23:48.000Z,26.9
2018-02-15T11:25:33.000Z,26.2
2018-02-15T11:26:48.000Z,25.8
2018-02-15T11:28:33.000Z,25.3
2018-02-15T11:29:48.000Z,24.9
2018-02-15T11:31:48.000Z,24.5
2018-02-15T11:32:48.000Z,24.3
2018-02-15T11:34:48.000Z,23.9
2018-02-15T11:35:48.000Z,23.8
2018-02-15T11:37:48.000Z,24.1
2018-02-15T11:38:48.000Z,24.4
2018-02-15T11:39:48.000Z,24.7
2018-02-15T11:40:48.000Z,25
2018-02-15T11:42:33.000Z,25.4
2018-02-15T11:43:48.000Z,25.6
2018-02-15T11:45:48.000Z,26
2018-02-15T11:47:48.000Z,26.3
2018-02-15T11:48:48.000Z,26.4
2018-02-15T11:50:48.000Z,26.7
2018-02-15T11:52:48.000Z,26.9
2018-02-15T11:54:48.000Z,27.1
2018-02-15T11:56:48.000Z,27.3
2018-02-15T11:58:48.000Z,27.4
2018-02-15T11:59:48.000Z,27.5
2018-02-15T12:01:33.000Z,27.6
2018-02-15T12:02:48.000Z,27.6
2018-02-15T12:03:48.000Z,27.7
2018-02-15T12:04:48.000Z,27.8
2018-02-15T12:06:33.000Z,28
2018-02-15T12:07:48.000Z,28
2018-02-15T12:08:48.000Z,28.1
2018-02-15T12:10:48.000Z,28.1
2018-02-15T12:11:48.000Z,28.1
2018-02-15T12:13:48.000Z,28.2
2018-02-15T12:14:48.000Z,28.2
2018-02-15T12:15:48.000Z,28.2
2018-02-15T12:17:48.000Z,28.2
2018-02-15T12:18:48.000Z,28.2
2018-02-15T12:19:48.000Z,28.3
2018-02-15T12:21:48.000Z,28.3
2018-02-15T12:22:48.000Z,28.4
2018-02-15T12:24:48.000Z,28.4
2018-02-15T12:25:48.000Z,28.5
2018-02-15T12:27:48.000Z,28.5
2018-02-15T12:29:48.000Z,28.5
2018-02-15T12:30:48.000Z,28.5
2018-02-15T12:31:48.000Z,28.6
2018-02-15T12:33:48.000Z,28.6
2018-02-15T12:34:48.000Z,28.6
2018-02-15T12:35:48.000Z,28.7
2018-02-15T12:37:48.000Z,28.7
2018-02-15T12:39:48.000Z,28.6
2018-02-15T12:41:48.000Z,28.5
2018-02-15T12:42:48.000Z,28.5
2018-02-15T12:44:48.000Z,28.5
2018-02-15T12:45:48.000Z,28.5
2018-02-15T12:46:48.000Z,28.6
2018-02-15T12:47:48.000Z,28.7
2018-02-15T12:48:48.000Z,28.7
2018-02-15T12:50:48.000Z,28.8
2018-02-15T12:51:48.000Z,28.8
2018-02-15T12:52:48.000Z,28.8
2018-02-15T12:53:48.000Z,28.9
2018-02-15T12:54:48.000Z,28.9
2018-02-15T12:56:48.000Z,29
2018-02-15T12:58:48.000Z,29
2018-02-15T12:59:48.000Z,29
2018-02-15T13:01:48.000Z,29
2018-02-15T13:02:48.000Z,29
2018-02-15T13:04:48.000Z,29.1
2018-02-15T13:05:48.000Z,29.1
2018-02-15T13:06:48.000Z,29.1
2018-02-15T13:07:48.000Z,29.2
2018-02-15T13:09:48.000Z,29.2
2018-02-15T13:11:48.000Z,29.2
2018-02-15T13:13:48.000Z,29.2
2018-02-15T13:14:48.000Z,29.1
2018-02-15T13:15:48.000Z,29.1
2018-02-15T13:17:48.000Z,29.1
2018-02-15T13:19:48.000Z,29.1
2018-02-15T13:21:48.000Z,29.1
2018-02-15T13:23:48.000Z,29.1
2018-02-15T13:24:48.000Z,29.1
2018-02-15T13:25:48.000Z,29.2
2018-02-15T13:26:48.000Z,29.2
2018-02-15T13:28:33.000Z,29.3
2018-02-15T13:29:48.000Z,29.3
2018-02-15T13:31:48.000Z,29.3
2018-02-15T13:32:48.000Z,29.3
2018-02-15T13:33:48.000Z,29.4
2018-02-15T13:35:48.000Z,29.5
2018-02-15T13:37:48.000Z,29.4
2018-02-15T13:38:48.000Z,29.4
2018-02-15T13:40:48.000Z,29.4
2018-02-15T13:42:48.000Z,29.5
2018-02-15T13:43:48.000Z,29.5
2018-02-15T13:45:48.000Z,29.5
2018-02-15T13:46:48.000Z,29.5
2018-02-15T13:48:48.000Z,29.5
2018-02-15T13:50:33.000Z,29.5
2018-02-15T13:51:48.000Z,29.5
2018-02-15T13:53:48.000Z,29.4
2018-02-15T13:54:48.000Z,29.5
2018-02-15T13:56:33.000Z,29.5
2018-02-15T13:57:48.000Z,29.5
2018-02-15T13:59:48.000Z,29.5
2018-02-15T14:01:48.000Z,29.5
2018-02-15T14:02:48.000Z,29.5
2018-02-15T14:04:48.000Z,29.6
2018-02-15T14:06:48.000Z,29.6
2018-02-15T14:08:48.000Z,29.6
2018-02-15T14:09:48.000Z,29.6
2018-02-15T14:10:48.000Z,29.6
2018-02-15T14:11:48.000Z,29.7
2018-02-15T14:13:48.000Z,29.7
2018-02-15T14:15:33.000Z,29.7
2018-02-15T14:16:48.000Z,29.6
2018-02-15T14:17:48.000Z,29.6
2018-02-15T14:19:48.000Z,29.7
2018-02-15T14:21:48.000Z,29.6
2018-02-15T14:22:48.000Z,29.6
2018-02-15T14:24:48.000Z,29.6
2018-02-15T14:26:48.000Z,29.6
2018-02-15T14:28:48.000Z,29.5
2018-02-15T14:29:48.000Z,29.5
2018-02-15T14:31:48.000Z,29.6
2018-02-15T14:33:48.000Z,29.6
2018-02-15T14:34:48.000Z,29.6
2018-02-15T14:35:48.000Z,29.6
2018-02-15T14:37:48.000Z,29.6
2018-02-15T14:38:48.000Z,29.6
2018-02-15T14:40:48.000Z,29.5
2018-02-15T14:41:48.000Z,29.5
2018-02-15T14:42:48.000Z,29.5
2018-02-15T14:44:48.000Z,29.6
2018-02-15T14:45:48.000Z,29.6
2018-02-15T14:47:48.000Z,29.6
2018-02-15T14:49:48.000Z,29.6
2018-02-15T14:51:48.000Z,29.5
2018-02-15T14:53:48.000Z,29.4
2018-02-15T14:55:48.000Z,29.3
2018-02-15T14:57:48.000Z,29.3
2018-02-15T14:59:48.000Z,29.3
2018-02-15T15:01:48.000Z,29.3
2018-02-15T15:05:34.000Z,29
2018-02-15T15:07:34.000Z,29
2018-02-15T15:08:34.000Z,29
2018-02-15T15:09:34.000Z,29.1
2018-02-15T15:10:34.000Z,29.2
2018-02-15T15:11:34.000Z,29.3
2018-02-15T15:13:34.000Z,29.4
2018-02-15T15:14:34.000Z,29.4
2018-02-15T15:16:34.000Z,29.5
2018-02-15T15:17:34.000Z,29.5
2018-02-15T15:19:34.000Z,29.5
2018-02-15T15:21:34.000Z,29.5
2018-02-15T15:23:34.000Z,29.4
2018-02-15T15:24:34.000Z,29.4
2018-02-15T15:25:34.000Z,29.5
2018-02-15T15:26:34.000Z,29.5
2018-02-15T15:28:34.000Z,29.5
2018-02-15T15:30:34.000Z,29.4
2018-02-15T15:31:34.000Z,29.4
2018-02-15T15:33:34.000Z,29.4
2018-02-15T15:34:34.000Z,29.4
2018-02-15T15:36:19.000Z,29.5
2018-02-15T15:37:34.000Z,29.5
2018-02-15T15:39:34.000Z,29.5
2018-02-15T15:40:34.000Z,29.5
2018-02-15T15:42:34.000Z,29.5
2018-02-15T15:44:34.000Z,29.4
2018-02-15T15:46:34.000Z,29.4
2018-02-15T15:48:34.000Z,29.3
2018-02-15T15:49:34.000Z,29.3
2018-02-15T15:51:34.000Z,29.2
2018-02-15T15:53:34.000Z,29.2
2018-02-15T15:55:34.000Z,29.1
2018-02-15T15:57:34.000Z,29
2018-02-15T15:58:34.000Z,29
2018-02-15T15:59:34.000Z,29.1
2018-02-15T16:00:34.000Z,29.2
2018-02-15T16:02:34.000Z,29.2
2018-02-15T16:03:34.000Z,29.2
2018-02-15T16:05:34.000Z,29.2
2018-02-15T16:07:34.000Z,29.2
2018-02-15T16:08:34.000Z,29.2
2018-02-15T16:10:34.000Z,29.2
2018-02-15T16:12:34.000Z,29.1
2018-02-15T16:14:34.000Z,29.1
2018-02-15T16:15:34.000Z,29.1
2018-02-15T16:16:34.000Z,29.1
2018-02-15T16:17:34.000Z,29.2
2018-02-15T16:18:34.000Z,29.2
2018-02-15T16:20:34.000Z,29.2
2018-02-15T16:21:34.000Z,29.2
2018-02-15T16:22:34.000Z,29.2
2018-02-15T16:24:34.000Z,29.2
2018-02-15T16:25:34.000Z,29.2
2018-02-15T16:27:34.000Z,29.1
2018-02-15T16:28:34.000Z,29
2018-02-15T16:30:34.000Z,29.1
2018-02-15T16:31:34.000Z,29.1
2018-02-15T16:33:34.000Z,29.1
2018-02-15T16:34:34.000Z,29
2018-02-15T16:36:34.000Z,29.1
2018-02-15T16:37:34.000Z,29.1
2018-02-15T16:39:34.000Z,29.1
2018-02-15T16:41:19.000Z,29.1
2018-02-15T16:42:34.000Z,29.1
2018-02-15T16:44:34.000Z,29
2018-02-15T16:45:34.000Z,29
2018-02-15T16:47:34.000Z,29.1
2018-02-15T16:49:34.000Z,29
2018-02-15T16:50:34.000Z,29
2018-02-15T16:52:34.000Z,29
2018-02-15T16:53:34.000Z,29
2018-02-15T16:54:34.000Z,29
2018-02-15T16:56:34.000Z,29.1
2018-02-15T16:57:34.000Z,29.1
2018-02-15T16:59:34.000Z,29.1
2018-02-15T17:01:34.000Z,29
2018-02-15T17:03:34.000Z,28.9
2018-02-15T17:04:34.000Z,28.9
2018-02-15T17:05:34.000Z,28.9
2018-02-15T17:06:34.000Z,29
2018-02-15T17:07:34.000Z,29
2018-02-15T17:09:19.000Z,29.1
2018-02-15T17:10:34.000Z,29.1
2018-02-15T17:12:34.000Z,29
2018-02-15T17:13:34.000Z,29
2018-02-15T17:14:35.000Z,29
2018-02-15T17:16:35.000Z,29
2018-02-15T17:17:35.000Z,28.9
2018-02-15T17:18:35.000Z,29
2018-02-15T17:20:20.000Z,29.1
2018-02-15T17:21:35.000Z,29
2018-02-15T17:22:35.000Z,29
2018-02-15T17:24:35.000Z,29
2018-02-15T17:26:35.000Z,29
2018-02-15T17:27:35.000Z,28.9
2018-02-15T17:29:20.000Z,29
2018-02-15T17:30:35.000Z,28.9
2018-02-15T17:31:35.000Z,28.9
2018-02-15T17:33:35.000Z,28.9
2018-02-15T17:35:35.000Z,28.9
2018-02-15T17:36:35.000Z,28.9
2018-02-15T17:38:35.000Z,28.9
2018-02-15T17:40:20.000Z,28.9
2018-02-15T17:41:35.000Z,28.8
2018-02-15T17:42:35.000Z,28.9
2018-02-15T17:44:35.000Z,28.9
2018-02-15T17:46:35.000Z,28.8
2018-02-15T17:47:35.000Z,28.8
2018-02-15T17:48:35.000Z,28.8
2018-02-15T17:49:35.000Z,28.9
2018-02-15T17:51:35.000Z,28.9
2018-02-15T17:52:35.000Z,28.9
2018-02-15T17:53:35.000Z,29
2018-02-15T17:55:35.000Z,29.1
2018-02-15T17:56:35.000Z,29.1
2018-02-15T17:58:35.000Z,29.1
2018-02-15T18:00:35.000Z,29
2018-02-15T18:01:35.000Z,29
2018-02-15T18:02:35.000Z,29.1
2018-02-15T18:04:35.000Z,29.1
2018-02-15T18:05:35.000Z,29.1
2018-02-15T18:06:35.000Z,29.1
2018-02-15T18:08:35.000Z,29.1
2018-02-15T18:09:35.000Z,29.1
2018-02-15T18:11:35.000Z,29.2
2018-02-15T18:12:35.000Z,29.2
2018-02-15T18:13:35.000Z,29.2
2018-02-15T18:14:35.000Z,29.2
2018-02-15T18:16:35.000Z,29.3
2018-02-15T18:18:34.000Z,29.1
2018-02-15T18:20:34.000Z,29
2018-02-15T18:21:34.000Z,29
2018-02-15T18:22:34.000Z,29
2018-02-15T18:24:34.000Z,29
2018-02-15T18:26:34.000Z,28.9
2018-02-15T18:27:34.000Z,28.8
2018-02-15T18:28:34.000Z,28.9
2018-02-15T18:30:34.000Z,28.9
2018-02-15T18:31:34.000Z,29
2018-02-15T18:33:34.000Z,28.9
2018-02-15T18:35:34.000Z,28.9
2018-02-15T18:36:34.000Z,28.9
2018-02-15T18:38:34.000Z,28.9
2018-02-15T18:39:34.000Z,28.9
2018-02-15T18:41:34.000Z,28.9
2018-02-15T18:42:34.000Z,28.9
2018-02-15T18:44:34.000Z,28.9
2018-02-15T18:46:34.000Z,28.8
2018-02-15T18:48:34.000Z,28.8
2018-02-15T18:49:34.000Z,28.8
2018-02-15T18:51:34.000Z,28.8
2018-02-15T18:53:34.000Z,28.8
2018-02-15T18:54:34.000Z,28.8
2018-02-15T18:56:34.000Z,28.8
2018-02-15T18:57:34.000Z,28.9
2018-02-15T18:59:34.000Z,28.8
2018-02-15T19:00:34.000Z,28.8
2018-02-15T19:01:34.000Z,28.8
2018-02-15T19:02:34.000Z,28.8
2018-02-15T19:04:19.000Z,28.9
2018-02-15T19:05:34.000Z,28.8
2018-02-15T19:07:34.000Z,28.8
2018-02-15T19:08:34.000Z,28.8
2018-02-15T19:09:34.000Z,28.9
2018-02-15T19:10:34.000Z,28.9
2018-02-15T19:11:34.000Z,28.9
2018-02-15T19:13:34.000Z,29
2018-02-15T19:15:34.000Z,28.9
2018-02-15T19:17:34.000Z,28.8
2018-02-15T19:19:34.000Z,28.6
2018-02-15T19:21:34.000Z,28.5
2018-02-15T19:23:34.000Z,28.5
2018-02-15T19:24:34.000Z,28.5
2018-02-15T19:26:19.000Z,28.6
2018-02-15T19:27:34.000Z,28.6
2018-02-15T19:28:34.000Z,28.6
2018-02-15T19:30:34.000Z,28.6
2018-02-15T19:31:34.000Z,28.6
2018-02-15T19:32:34.000Z,28.7
2018-02-15T19:34:34.000Z,28.7
2018-02-15T19:36:34.000Z,28.8
2018-02-15T19:38:34.000Z,28.7
2018-02-15T19:39:34.000Z,28.7
2018-02-15T19:41:34.000Z,28.8
2018-02-15T19:43:34.000Z,28.7
2018-02-15T19:44:34.000Z,28.7
2018-02-15T19:46:34.000Z,28.6
2018-02-15T19:47:34.000Z,28.6
2018-02-15T19:49:34.000Z,28.6
2018-02-15T19:50:34.000Z,28.6
2018-02-15T19:51:34.000Z,28.7
2018-02-15T19:52:34.000Z,28.8
2018-02-15T19:54:34.000Z,28.8
2018-02-15T19:56:34.000Z,28.8
2018-02-15T19:57:34.000Z,28.8
2018-02-15T19:59:19.000Z,28.8
2018-02-15T20:00:34.000Z,28.7
2018-02-15T20:02:34.000Z,28.7
2018-02-15T20:03:34.000Z,28.7
2018-02-15T20:04:34.000Z,28.7
2018-02-15T20:06:19.000Z,28.7
2018-02-15T20:07:34.000Z,28.6
2018-02-15T20:08:34.000Z,28.6
2018-02-15T20:10:34.000Z,28.6
2018-02-15T20:12:34.000Z,28.6
2018-02-15T20:14:34.000Z,28.6
2018-02-15T20:15:34.000Z,28.6
2018-02-15T20:17:34.000Z,28.6
2018-02-15T20:18:34.000Z,28.6
2018-02-15T20:20:34.000Z,28.6
2018-02-15T20:22:34.000Z,28.6
2018-02-15T20:24:19.000Z,28.6
2018-02-15T20:25:35.000Z,28.5
2018-02-15T20:27:35.000Z,28.5
2018-02-15T20:28:35.000Z,28.5
2018-02-15T20:29:35.000Z,28.5